sensor_id;sensor_type;location;lat;lon;timestamp;temperature;humidity
3736;DHT22;1883;48.202;16.310;2023-07-31T01:15:36;18.70;66.30
3736;DHT22;1883;48.202;16.310;2023-07-31T01:18:22;18.60;66.20
3736;DHT22;1883;48.202;16.310;2023-07-31T01:21:19;18.70;66.20
3736;DHT22;1883;48.202;16.310;2023-07-31T01:24:29;18.60;66.10
3736;DHT22;1883;48.202;16.310;2023-07-31T02:10:27;18.50;65.50
3736;DHT22;1883;48.202;16.310;2023-07-31T02:13:09;18.50;65.70
3736;DHT22;1883;48.202;16.310;2023-07-31T02:15:36;18.40;65.70
3736;DHT22;1883;48.202;16.310;2023-07-31T02:18:03;18.40;65.50
3736;DHT22;1883;48.202;16.310;2023-07-31T02:20:33;18.40;65.60
3736;DHT22;1883;48.202;16.310;2023-07-31T02:23:00;18.20;65.50
3736;DHT22;1883;48.202;16.310;2023-07-31T02:25:29;18.30;65.30
3736;DHT22;1883;48.202;16.310;2023-07-31T02:27:56;18.20;65.30
3736;DHT22;1883;48.202;16.310;2023-07-31T02:30:23;18.20;65.30
3736;DHT22;1883;48.202;16.310;2023-07-31T02:32:50;18.20;65.30
3736;DHT22;1883;48.202;16.310;2023-07-31T02:35:19;18.10;65.20
3736;DHT22;1883;48.202;16.310;2023-07-31T02:38:29;18.10;65.20
3736;DHT22;1883;48.202;16.310;2023-07-31T02:44:30;18.10;65.10
3736;DHT22;1883;48.202;16.310;2023-07-31T02:47:02;18.10;65.10
3736;DHT22;1883;48.202;16.310;2023-07-31T02:49:40;18.00;65.00
3736;DHT22;1883;48.202;16.310;2023-07-31T02:52:25;18.10;65.00
3736;DHT22;1883;48.202;16.310;2023-07-31T02:55:08;18.10;65.00
3736;DHT22;1883;48.202;16.310;2023-07-31T02:57:49;18.00;64.90
3736;DHT22;1883;48.202;16.310;2023-07-31T03:00:56;17.90;64.90
3736;DHT22;1883;48.202;16.310;2023-07-31T03:03:41;18.00;64.80
3736;DHT22;1883;48.202;16.310;2023-07-31T03:06:22;17.90;64.80
3736;DHT22;1883;48.202;16.310;2023-07-31T03:09:05;18.00;64.80
3736;DHT22;1883;48.202;16.310;2023-07-31T03:11:47;18.00;64.70
3736;DHT22;1883;48.202;16.310;2023-07-31T03:14:28;17.90;64.70
3736;DHT22;1883;48.202;16.310;2023-07-31T03:23:37;17.90;64.60
3736;DHT22;1883;48.202;16.310;2023-07-31T03:26:06;17.90;64.60
3736;DHT22;1883;48.202;16.310;2023-07-31T03:28:34;17.80;64.50
3736;DHT22;1883;48.202;16.310;2023-07-31T03:31:00;17.90;64.50
3736;DHT22;1883;48.202;16.310;2023-07-31T03:33:28;17.80;64.40
3736;DHT22;1883;48.202;16.310;2023-07-31T03:36:18;17.90;64.40
3736;DHT22;1883;48.202;16.310;2023-07-31T07:55:49;21.90;72.50
3736;DHT22;1883;48.202;16.310;2023-07-31T07:58:50;22.10;72.70
3736;DHT22;1883;48.202;16.310;2023-07-31T08:01:36;21.80;72.70
3736;DHT22;1883;48.202;16.310;2023-07-31T08:04:38;21.80;72.60
3736;DHT22;1883;48.202;16.310;2023-07-31T08:10:25;21.90;72.70
3736;DHT22;1883;48.202;16.310;2023-07-31T08:29:53;21.80;72.40
3736;DHT22;1883;48.202;16.310;2023-07-31T08:32:37;22.00;72.70
3736;DHT22;1883;48.202;16.310;2023-07-31T08:35:21;21.90;73.00
3736;DHT22;1883;48.202;16.310;2023-07-31T08:38:17;22.20;73.30
3736;DHT22;1883;48.202;16.310;2023-07-31T08:41:14;22.10;73.80
3736;DHT22;1883;48.202;16.310;2023-07-31T08:43:59;22.20;73.80
3736;DHT22;1883;48.202;16.310;2023-07-31T08:50:20;22.40;73.90
3736;DHT22;1883;48.202;16.310;2023-07-31T08:53:20;22.40;73.90
3736;DHT22;1883;48.202;16.310;2023-07-31T08:56:05;22.50;74.00
3736;DHT22;1883;48.202;16.310;2023-07-31T08:59:02;22.50;73.70
3736;DHT22;1883;48.202;16.310;2023-07-31T09:01:35;22.70;73.90
3736;DHT22;1883;48.202;16.310;2023-07-31T09:04:48;22.80;73.90
3736;DHT22;1883;48.202;16.310;2023-07-31T09:32:16;23.10;74.10
3736;DHT22;1883;48.202;16.310;2023-07-31T09:35:03;23.20;74.30
3736;DHT22;1883;48.202;16.310;2023-07-31T09:38:17;23.20;74.40
3736;DHT22;1883;48.202;16.310;2023-07-31T09:41:06;23.40;74.50
3736;DHT22;1883;48.202;16.310;2023-07-31T22:46:52;22.00;69.70
3736;DHT22;1883;48.202;16.310;2023-07-31T22:49:35;21.90;69.90
3736;DHT22;1883;48.202;16.310;2023-07-31T22:52:03;22.00;69.80
3736;DHT22;1883;48.202;16.310;2023-07-31T22:54:46;21.90;70.00
3736;DHT22;1883;48.202;16.310;2023-07-31T22:57:30;21.80;70.10
3736;DHT22;1883;48.202;16.310;2023-07-31T23:00:29;21.70;70.20
3736;DHT22;1883;48.202;16.310;2023-07-31T23:09:28;21.50;70.20
3736;DHT22;1883;48.202;16.310;2023-07-31T23:12:09;21.50;70.20
3736;DHT22;1883;48.202;16.310;2023-07-31T23:14:46;21.60;70.30
3736;DHT22;1883;48.202;16.310;2023-07-31T23:17:39;21.60;70.20
3736;DHT22;1883;48.202;16.310;2023-07-31T23:20:22;21.60;70.10
3736;DHT22;1883;48.202;16.310;2023-07-31T23:23:05;21.60;70.10
3736;DHT22;1883;48.202;16.310;2023-07-31T23:38:43;21.50;69.60
3736;DHT22;1883;48.202;16.310;2023-07-31T23:41:12;21.50;69.50
3736;DHT22;1883;48.202;16.310;2023-07-31T23:43:48;21.50;69.60
3736;DHT22;1883;48.202;16.310;2023-07-31T23:46:32;21.40;69.50
3736;DHT22;1883;48.202;16.310;2023-07-31T23:49:13;21.40;69.50
3736;DHT22;1883;48.202;16.310;2023-07-31T23:51:55;21.30;69.40
3736;DHT22;1883;48.202;16.310;2023-07-31T23:54:25;21.30;69.40
3736;DHT22;1883;48.202;16.310;2023-07-31T23:57:07;21.30;69.40
3736;DHT22;1883;48.202;16.310;2023-07-31T23:59:35;21.20;69.40
